sensor_id;sensor_type;location;lat;lon;timestamp;temperature;humidity
63317;DHT22;49822;41.468;13.560;2022-08-25T00:00:16;20.50;76.50
63317;DHT22;49822;41.468;13.560;2022-08-25T00:02:44;20.80;75.80
63317;DHT22;49822;41.468;13.560;2022-08-25T00:05:27;21.00;75.60
63317;DHT22;49822;41.468;13.560;2022-08-25T00:08:00;21.00;74.90
63317;DHT22;49822;41.468;13.560;2022-08-25T00:10:29;21.00;74.80
63317;DHT22;49822;41.468;13.560;2022-08-25T00:12:58;21.00;75.00
63317;DHT22;49822;41.468;13.560;2022-08-25T00:15:28;21.00;74.80
63317;DHT22;49822;41.468;13.560;2022-08-25T00:18:01;21.10;74.40
63317;DHT22;49822;41.468;13.560;2022-08-25T00:20:30;21.10;74.10
63317;DHT22;49822;41.468;13.560;2022-08-25T00:22:58;21.10;74.10
63317;DHT22;49822;41.468;13.560;2022-08-25T00:25:27;21.00;74.30
63317;DHT22;49822;41.468;13.560;2022-08-25T00:27:54;21.00;74.40
63317;DHT22;49822;41.468;13.560;2022-08-25T00:30:25;21.10;74.30
63317;DHT22;49822;41.468;13.560;2022-08-25T00:32:54;21.10;73.90
63317;DHT22;49822;41.468;13.560;2022-08-25T00:35:24;21.00;74.40
63317;DHT22;49822;41.468;13.560;2022-08-25T00:37:52;21.10;74.40
63317;DHT22;49822;41.468;13.560;2022-08-25T00:40:21;21.00;74.30
63317;DHT22;49822;41.468;13.560;2022-08-25T00:42:49;20.80;74.90
63317;DHT22;49822;41.468;13.560;2022-08-25T00:45:20;20.60;75.50
63317;DHT22;49822;41.468;13.560;2022-08-25T00:47:53;20.60;75.40
63317;DHT22;49822;41.468;13.560;2022-08-25T00:50:28;20.80;74.90
63317;DHT22;49822;41.468;13.560;2022-08-25T00:53:00;21.00;74.20
63317;DHT22;49822;41.468;13.560;2022-08-25T00:55:36;21.10;74.00
63317;DHT22;49822;41.468;13.560;2022-08-25T00:58:21;21.10;74.00
63317;DHT22;49822;41.468;13.560;2022-08-25T01:01:17;21.10;73.60
63317;DHT22;49822;41.468;13.560;2022-08-25T01:03:44;21.10;73.40
63317;DHT22;49822;41.468;13.560;2022-08-25T01:06:12;21.10;73.40
63317;DHT22;49822;41.468;13.560;2022-08-25T01:08:40;21.10;73.00
63317;DHT22;49822;41.468;13.560;2022-08-25T01:11:09;21.30;72.20
63317;DHT22;49822;41.468;13.560;2022-08-25T01:13:41;21.10;73.10
63317;DHT22;49822;41.468;13.560;2022-08-25T01:16:09;21.10;73.90
63317;DHT22;49822;41.468;13.560;2022-08-25T01:18:47;21.10;74.00
63317;DHT22;49822;41.468;13.560;2022-08-25T01:21:16;20.90;74.10
63317;DHT22;49822;41.468;13.560;2022-08-25T01:23:46;20.70;74.60
63317;DHT22;49822;41.468;13.560;2022-08-25T01:26:21;20.50;75.50
63317;DHT22;49822;41.468;13.560;2022-08-25T01:28:59;20.50;75.90
63317;DHT22;49822;41.468;13.560;2022-08-25T01:31:47;20.60;75.50
63317;DHT22;49822;41.468;13.560;2022-08-25T01:34:17;20.80;74.50
63317;DHT22;49822;41.468;13.560;2022-08-25T01:36:45;20.90;74.70
63317;DHT22;49822;41.468;13.560;2022-08-25T01:39:13;21.00;73.70
63317;DHT22;49822;41.468;13.560;2022-08-25T01:44:33;20.90;74.00
63317;DHT22;49822;41.468;13.560;2022-08-25T01:47:02;20.80;74.40
63317;DHT22;49822;41.468;13.560;2022-08-25T01:49:31;20.50;75.50
63317;DHT22;49822;41.468;13.560;2022-08-25T01:52:18;20.30;76.70
63317;DHT22;49822;41.468;13.560;2022-08-25T01:54:47;20.30;77.00
63317;DHT22;49822;41.468;13.560;2022-08-25T01:57:14;20.30;76.60
63317;DHT22;49822;41.468;13.560;2022-08-25T01:59:45;20.00;77.50
63317;DHT22;49822;41.468;13.560;2022-08-25T02:02:14;20.00;77.30
63317;DHT22;49822;41.468;13.560;2022-08-25T02:04:44;20.00;77.00
63317;DHT22;49822;41.468;13.560;2022-08-25T02:07:11;20.10;76.60
63317;DHT22;49822;41.468;13.560;2022-08-25T02:09:39;20.30;76.50
63317;DHT22;49822;41.468;13.560;2022-08-25T02:12:07;20.50;76.20
63317;DHT22;49822;41.468;13.560;2022-08-25T02:14:38;20.60;75.40
63317;DHT22;49822;41.468;13.560;2022-08-25T02:17:07;20.70;74.70
63317;DHT22;49822;41.468;13.560;2022-08-25T02:19:36;20.70;74.30
63317;DHT22;49822;41.468;13.560;2022-08-25T02:22:04;20.50;75.20
63317;DHT22;49822;41.468;13.560;2022-08-25T02:24:33;20.30;76.50
63317;DHT22;49822;41.468;13.560;2022-08-25T02:27:02;20.30;75.50
63317;DHT22;49822;41.468;13.560;2022-08-25T02:29:31;20.00;77.30
63317;DHT22;49822;41.468;13.560;2022-08-25T02:31:59;19.70;78.20
63317;DHT22;49822;41.468;13.560;2022-08-25T02:34:28;19.80;78.70
63317;DHT22;49822;41.468;13.560;2022-08-25T02:36:55;19.90;78.50
63317;DHT22;49822;41.468;13.560;2022-08-25T02:39:23;20.00;77.60
63317;DHT22;49822;41.468;13.560;2022-08-25T02:41:50;20.10;77.20
63317;DHT22;49822;41.468;13.560;2022-08-25T02:44:18;20.30;76.80
63317;DHT22;49822;41.468;13.560;2022-08-25T02:46:45;20.30;76.70
63317;DHT22;49822;41.468;13.560;2022-08-25T02:49:15;20.30;76.50
63317;DHT22;49822;41.468;13.560;2022-08-25T02:51:44;20.30;76.50
63317;DHT22;49822;41.468;13.560;2022-08-25T02:54:11;20.30;76.60
63317;DHT22;49822;41.468;13.560;2022-08-25T02:56:39;20.20;77.40
63317;DHT22;49822;41.468;13.560;2022-08-25T02:59:10;20.30;76.80
63317;DHT22;49822;41.468;13.560;2022-08-25T03:01:37;20.10;76.90
63317;DHT22;49822;41.468;13.560;2022-08-25T03:04:04;20.10;77.30
63317;DHT22;49822;41.468;13.560;2022-08-25T03:06:33;20.20;76.20
63317;DHT22;49822;41.468;13.560;2022-08-25T03:09:00;20.30;77.20
63317;DHT22;49822;41.468;13.560;2022-08-25T03:11:28;20.00;77.70
63317;DHT22;49822;41.468;13.560;2022-08-25T03:13:55;19.40;80.50
63317;DHT22;49822;41.468;13.560;2022-08-25T03:16:24;19.30;81.00
63317;DHT22;49822;41.468;13.560;2022-08-25T03:18:54;19.30;81.20
63317;DHT22;49822;41.468;13.560;2022-08-25T03:21:23;19.50;80.40
63317;DHT22;49822;41.468;13.560;2022-08-25T03:23:51;19.70;79.60
63317;DHT22;49822;41.468;13.560;2022-08-25T03:26:20;19.90;78.70
63317;DHT22;49822;41.468;13.560;2022-08-25T03:29:07;20.00;77.90
63317;DHT22;49822;41.468;13.560;2022-08-25T03:31:35;20.10;77.40
63317;DHT22;49822;41.468;13.560;2022-08-25T03:34:03;20.10;77.40
63317;DHT22;49822;41.468;13.560;2022-08-25T03:36:31;20.10;77.00
63317;DHT22;49822;41.468;13.560;2022-08-25T03:38:59;20.00;77.20
63317;DHT22;49822;41.468;13.560;2022-08-25T03:41:28;19.50;79.00
63317;DHT22;49822;41.468;13.560;2022-08-25T03:43:56;19.30;80.50
63317;DHT22;49822;41.468;13.560;2022-08-25T03:46:27;19.30;80.10
63317;DHT22;49822;41.468;13.560;2022-08-25T03:48:55;19.50;79.80
63317;DHT22;49822;41.468;13.560;2022-08-25T03:51:28;19.70;79.20
63317;DHT22;49822;41.468;13.560;2022-08-25T03:53:57;19.80;78.10
63317;DHT22;49822;41.468;13.560;2022-08-25T03:56:25;19.60;78.00
63317;DHT22;49822;41.468;13.560;2022-08-25T03:58:56;19.40;78.60
63317;DHT22;49822;41.468;13.560;2022-08-25T04:01:24;19.10;79.60
63317;DHT22;49822;41.468;13.560;2022-08-25T04:03:53;19.00;80.20
63317;DHT22;49822;41.468;13.560;2022-08-25T04:06:21;19.10;80.10
63317;DHT22;49822;41.468;13.560;2022-08-25T04:08:49;19.30;79.30
63317;DHT22;49822;41.468;13.560;2022-08-25T04:11:21;19.50;78.80
63317;DHT22;49822;41.468;13.560;2022-08-25T04:13:50;19.50;77.20
63317;DHT22;49822;41.468;13.560;2022-08-25T04:19:30;19.70;77.40
63317;DHT22;49822;41.468;13.560;2022-08-25T04:21:57;19.70;77.20
63317;DHT22;49822;41.468;13.560;2022-08-25T04:24:25;19.50;76.70
63317;DHT22;49822;41.468;13.560;2022-08-25T04:26:53;19.20;78.20
63317;DHT22;49822;41.468;13.560;2022-08-25T04:29:22;19.30;78.50
63317;DHT22;49822;41.468;13.560;2022-08-25T04:31:51;19.50;78.30
63317;DHT22;49822;41.468;13.560;2022-08-25T04:34:23;19.40;77.80
63317;DHT22;49822;41.468;13.560;2022-08-25T04:37:01;19.00;79.00
63317;DHT22;49822;41.468;13.560;2022-08-25T04:39:30;18.90;80.10
63317;DHT22;49822;41.468;13.560;2022-08-25T04:41:58;19.00;80.10
63317;DHT22;49822;41.468;13.560;2022-08-25T04:44:28;19.10;80.00
63317;DHT22;49822;41.468;13.560;2022-08-25T04:46:56;19.20;79.60
63317;DHT22;49822;41.468;13.560;2022-08-25T04:49:25;19.40;78.60
63317;DHT22;49822;41.468;13.560;2022-08-25T04:51:52;19.50;78.30
63317;DHT22;49822;41.468;13.560;2022-08-25T04:54:20;19.70;78.10
63317;DHT22;49822;41.468;13.560;2022-08-25T04:56:50;19.60;77.20
63317;DHT22;49822;41.468;13.560;2022-08-25T04:59:25;19.30;78.20
63317;DHT22;49822;41.468;13.560;2022-08-25T05:01:57;18.70;80.80
63317;DHT22;49822;41.468;13.560;2022-08-25T05:04:25;18.70;81.80
63317;DHT22;49822;41.468;13.560;2022-08-25T05:06:55;19.00;81.00
63317;DHT22;49822;41.468;13.560;2022-08-25T05:09:23;19.30;80.00
63317;DHT22;49822;41.468;13.560;2022-08-25T05:11:52;19.70;78.90
63317;DHT22;49822;41.468;13.560;2022-08-25T05:14:22;19.90;78.20
63317;DHT22;49822;41.468;13.560;2022-08-25T05:16:53;20.00;76.80
63317;DHT22;49822;41.468;13.560;2022-08-25T05:19:22;20.00;76.10
63317;DHT22;49822;41.468;13.560;2022-08-25T05:21:51;20.10;75.80
63317;DHT22;49822;41.468;13.560;2022-08-25T05:27:56;20.00;76.50
63317;DHT22;49822;41.468;13.560;2022-08-25T05:30:25;20.00;76.20
63317;DHT22;49822;41.468;13.560;2022-08-25T05:32:55;20.00;76.90
63317;DHT22;49822;41.468;13.560;2022-08-25T05:35:23;20.20;76.60
63317;DHT22;49822;41.468;13.560;2022-08-25T05:37:51;20.30;75.70
63317;DHT22;49822;41.468;13.560;2022-08-25T05:40:19;20.00;76.60
63317;DHT22;49822;41.468;13.560;2022-08-25T05:42:47;19.80;78.10
63317;DHT22;49822;41.468;13.560;2022-08-25T05:45:16;19.90;78.10
63317;DHT22;49822;41.468;13.560;2022-08-25T05:47:49;20.20;76.60
63317;DHT22;49822;41.468;13.560;2022-08-25T05:50:17;20.60;75.20
63317;DHT22;49822;41.468;13.560;2022-08-25T05:52:45;21.00;74.60
63317;DHT22;49822;41.468;13.560;2022-08-25T05:55:14;21.20;73.90
63317;DHT22;49822;41.468;13.560;2022-08-25T05:57:41;21.50;73.00
63317;DHT22;49822;41.468;13.560;2022-08-25T06:00:09;21.60;72.00
63317;DHT22;49822;41.468;13.560;2022-08-25T06:02:40;21.80;71.20
63317;DHT22;49822;41.468;13.560;2022-08-25T06:05:19;21.90;70.70
63317;DHT22;49822;41.468;13.560;2022-08-25T06:07:50;21.90;70.70
63317;DHT22;49822;41.468;13.560;2022-08-25T06:10:19;21.90;71.10
63317;DHT22;49822;41.468;13.560;2022-08-25T06:12:47;21.70;71.30
63317;DHT22;49822;41.468;13.560;2022-08-25T06:15:19;21.70;72.20
63317;DHT22;49822;41.468;13.560;2022-08-25T06:17:52;21.90;72.30
63317;DHT22;49822;41.468;13.560;2022-08-25T06:20:27;22.00;72.00
63317;DHT22;49822;41.468;13.560;2022-08-25T06:22:57;22.10;71.80
63317;DHT22;49822;41.468;13.560;2022-08-25T06:25:28;21.90;71.80
63317;DHT22;49822;41.468;13.560;2022-08-25T06:27:58;22.00;71.40
63317;DHT22;49822;41.468;13.560;2022-08-25T06:30:27;22.20;71.70
63317;DHT22;49822;41.468;13.560;2022-08-25T06:32:56;22.20;71.60
63317;DHT22;49822;41.468;13.560;2022-08-25T06:39:30;22.30;70.20
63317;DHT22;49822;41.468;13.560;2022-08-25T06:41:58;22.50;69.30
63317;DHT22;49822;41.468;13.560;2022-08-25T06:44:27;22.50;68.70
63317;DHT22;49822;41.468;13.560;2022-08-25T06:46:55;22.70;67.80
63317;DHT22;49822;41.468;13.560;2022-08-25T06:49:23;22.80;67.50
63317;DHT22;49822;41.468;13.560;2022-08-25T06:51:58;22.80;68.60
63317;DHT22;49822;41.468;13.560;2022-08-25T06:54:50;22.80;69.10
63317;DHT22;49822;41.468;13.560;2022-08-25T06:57:21;22.90;68.20
63317;DHT22;49822;41.468;13.560;2022-08-25T06:59:49;22.80;67.10
63317;DHT22;49822;41.468;13.560;2022-08-25T07:02:19;22.90;67.70
63317;DHT22;49822;41.468;13.560;2022-08-25T07:04:48;23.20;67.10
63317;DHT22;49822;41.468;13.560;2022-08-25T07:07:16;23.50;65.70
63317;DHT22;49822;41.468;13.560;2022-08-25T07:13:29;24.00;64.30
63317;DHT22;49822;41.468;13.560;2022-08-25T07:15:58;23.80;63.70
63317;DHT22;49822;41.468;13.560;2022-08-25T07:18:25;23.60;63.90
63317;DHT22;49822;41.468;13.560;2022-08-25T07:20:53;23.70;63.90
63317;DHT22;49822;41.468;13.560;2022-08-25T07:23:20;24.00;64.20
63317;DHT22;49822;41.468;13.560;2022-08-25T07:25:49;24.20;63.70
63317;DHT22;49822;41.468;13.560;2022-08-25T07:28:17;24.40;61.00
63317;DHT22;49822;41.468;13.560;2022-08-25T07:30:48;24.50;60.30
63317;DHT22;49822;41.468;13.560;2022-08-25T07:33:18;24.60;60.80
63317;DHT22;49822;41.468;13.560;2022-08-25T07:35:47;24.80;60.20
63317;DHT22;49822;41.468;13.560;2022-08-25T07:38:17;24.90;59.40
63317;DHT22;49822;41.468;13.560;2022-08-25T07:40:46;25.00;59.60
63317;DHT22;49822;41.468;13.560;2022-08-25T07:47:19;25.00;57.60
63317;DHT22;49822;41.468;13.560;2022-08-25T07:49:49;25.20;57.60
63317;DHT22;49822;41.468;13.560;2022-08-25T07:52:17;25.00;58.00
63317;DHT22;49822;41.468;13.560;2022-08-25T07:54:45;24.70;58.90
63317;DHT22;49822;41.468;13.560;2022-08-25T07:57:13;24.80;59.40
63317;DHT22;49822;41.468;13.560;2022-08-25T07:59:41;24.80;58.20
63317;DHT22;49822;41.468;13.560;2022-08-25T08:02:12;24.80;58.40
63317;DHT22;49822;41.468;13.560;2022-08-25T08:04:49;25.10;58.70
63317;DHT22;49822;41.468;13.560;2022-08-25T08:07:19;25.50;57.30
63317;DHT22;49822;41.468;13.560;2022-08-25T08:09:50;25.70;56.60
63317;DHT22;49822;41.468;13.560;2022-08-25T08:12:38;25.80;56.20
63317;DHT22;49822;41.468;13.560;2022-08-25T08:15:07;26.00;57.20
63317;DHT22;49822;41.468;13.560;2022-08-25T08:21:43;26.20;56.80
63317;DHT22;49822;41.468;13.560;2022-08-25T08:24:12;26.30;56.00
63317;DHT22;49822;41.468;13.560;2022-08-25T08:27:00;26.40;56.50
63317;DHT22;49822;41.468;13.560;2022-08-25T08:29:28;26.50;56.50
63317;DHT22;49822;41.468;13.560;2022-08-25T08:31:57;26.50;55.70
63317;DHT22;49822;41.468;13.560;2022-08-25T08:34:25;26.60;56.20
63317;DHT22;49822;41.468;13.560;2022-08-25T08:36:53;26.80;55.70
63317;DHT22;49822;41.468;13.560;2022-08-25T08:39:21;26.90;55.50
63317;DHT22;49822;41.468;13.560;2022-08-25T08:42:13;26.90;55.50
63317;DHT22;49822;41.468;13.560;2022-08-25T08:47:20;27.10;56.30
63317;DHT22;49822;41.468;13.560;2022-08-25T08:53:31;26.90;55.80
63317;DHT22;49822;41.468;13.560;2022-08-25T08:56:09;27.00;55.10
63317;DHT22;49822;41.468;13.560;2022-08-25T08:58:58;27.10;55.70
63317;DHT22;49822;41.468;13.560;2022-08-25T09:01:35;27.40;55.20
63317;DHT22;49822;41.468;13.560;2022-08-25T09:06:50;27.20;53.90
63317;DHT22;49822;41.468;13.560;2022-08-25T09:09:30;27.20;55.20
63317;DHT22;49822;41.468;13.560;2022-08-25T09:20:28;27.60;54.20
63317;DHT22;49822;41.468;13.560;2022-08-25T09:28:31;27.60;54.40
63317;DHT22;49822;41.468;13.560;2022-08-25T09:31:14;27.80;54.00
63317;DHT22;49822;41.468;13.560;2022-08-25T09:33:43;28.20;52.80
63317;DHT22;49822;41.468;13.560;2022-08-25T09:36:12;28.20;49.80
63317;DHT22;49822;41.468;13.560;2022-08-25T09:38:40;28.10;50.50
63317;DHT22;49822;41.468;13.560;2022-08-25T09:41:10;28.30;50.50
63317;DHT22;49822;41.468;13.560;2022-08-25T09:43:52;28.30;49.60
63317;DHT22;49822;41.468;13.560;2022-08-25T09:46:26;28.30;50.40
63317;DHT22;49822;41.468;13.560;2022-08-25T09:48:57;28.40;49.90
63317;DHT22;49822;41.468;13.560;2022-08-25T09:51:27;28.50;51.20
63317;DHT22;49822;41.468;13.560;2022-08-25T09:56:53;28.50;50.00
63317;DHT22;49822;41.468;13.560;2022-08-25T10:02:27;28.30;49.20
63317;DHT22;49822;41.468;13.560;2022-08-25T10:04:55;28.40;49.00
63317;DHT22;49822;41.468;13.560;2022-08-25T10:07:35;28.70;49.50
63317;DHT22;49822;41.468;13.560;2022-08-25T10:10:17;28.60;47.60
63317;DHT22;49822;41.468;13.560;2022-08-25T10:12:46;28.60;49.60
63317;DHT22;49822;41.468;13.560;2022-08-25T10:15:33;29.00;47.90
63317;DHT22;49822;41.468;13.560;2022-08-25T10:18:25;29.50;46.30
63317;DHT22;49822;41.468;13.560;2022-08-25T10:21:05;29.50;45.10
63317;DHT22;49822;41.468;13.560;2022-08-25T10:23:37;29.80;43.70
63317;DHT22;49822;41.468;13.560;2022-08-25T10:26:19;29.90;41.60
63317;DHT22;49822;41.468;13.560;2022-08-25T10:28:59;30.00;43.30
63317;DHT22;49822;41.468;13.560;2022-08-25T10:38:44;30.10;42.40
63317;DHT22;49822;41.468;13.560;2022-08-25T10:50:17;29.70;44.10
63317;DHT22;49822;41.468;13.560;2022-08-25T10:53:20;30.00;42.50
63317;DHT22;49822;41.468;13.560;2022-08-25T11:07:10;30.10;44.00
63317;DHT22;49822;41.468;13.560;2022-08-25T11:13:37;30.30;41.90
63317;DHT22;49822;41.468;13.560;2022-08-25T11:16:39;30.90;43.40
63317;DHT22;49822;41.468;13.560;2022-08-25T11:19:19;30.60;45.70
63317;DHT22;49822;41.468;13.560;2022-08-25T11:22:31;30.20;46.20
63317;DHT22;49822;41.468;13.560;2022-08-25T11:25:16;30.30;46.20
63317;DHT22;49822;41.468;13.560;2022-08-25T11:28:11;30.60;45.30
63317;DHT22;49822;41.468;13.560;2022-08-25T11:30:41;30.10;43.80
63317;DHT22;49822;41.468;13.560;2022-08-25T11:33:38;29.90;45.60
63317;DHT22;49822;41.468;13.560;2022-08-25T11:36:25;30.30;45.90
63317;DHT22;49822;41.468;13.560;2022-08-25T11:44:51;30.50;45.80
63317;DHT22;49822;41.468;13.560;2022-08-25T11:47:33;30.30;45.20
63317;DHT22;49822;41.468;13.560;2022-08-25T11:55:20;30.30;46.50
63317;DHT22;49822;41.468;13.560;2022-08-25T11:57:52;30.30;45.50
63317;DHT22;49822;41.468;13.560;2022-08-25T12:04:32;30.00;45.20
63317;DHT22;49822;41.468;13.560;2022-08-25T12:07:15;30.20;44.50
63317;DHT22;49822;41.468;13.560;2022-08-25T12:15:31;29.90;47.60
63317;DHT22;49822;41.468;13.560;2022-08-25T12:23:28;29.30;48.90
63317;DHT22;49822;41.468;13.560;2022-08-25T12:26:01;29.40;49.70
63317;DHT22;49822;41.468;13.560;2022-08-25T12:28:45;29.60;49.50
63317;DHT22;49822;41.468;13.560;2022-08-25T12:31:42;29.70;50.10
63317;DHT22;49822;41.468;13.560;2022-08-25T12:37:20;30.00;48.90
63317;DHT22;49822;41.468;13.560;2022-08-25T12:42:31;29.90;49.50
63317;DHT22;49822;41.468;13.560;2022-08-25T12:47:55;29.50;50.20
63317;DHT22;49822;41.468;13.560;2022-08-25T12:50:45;29.30;50.90
63317;DHT22;49822;41.468;13.560;2022-08-25T12:53:40;29.50;50.90
63317;DHT22;49822;41.468;13.560;2022-08-25T12:56:35;29.30;50.70
63317;DHT22;49822;41.468;13.560;2022-08-25T12:59:19;29.30;51.50
63317;DHT22;49822;41.468;13.560;2022-08-25T13:05:17;29.10;50.60
63317;DHT22;49822;41.468;13.560;2022-08-25T13:16:26;29.40;50.70
63317;DHT22;49822;41.468;13.560;2022-08-25T13:18:56;29.30;50.40
63317;DHT22;49822;41.468;13.560;2022-08-25T13:23:57;29.30;50.70
63317;DHT22;49822;41.468;13.560;2022-08-25T13:26:38;29.00;51.60
63317;DHT22;49822;41.468;13.560;2022-08-25T13:29:26;29.10;50.60
63317;DHT22;49822;41.468;13.560;2022-08-25T13:32:05;29.20;51.30
63317;DHT22;49822;41.468;13.560;2022-08-25T13:34:40;29.10;51.00
63317;DHT22;49822;41.468;13.560;2022-08-25T13:37:11;29.00;51.10
63317;DHT22;49822;41.468;13.560;2022-08-25T13:42:42;29.00;51.20
63317;DHT22;49822;41.468;13.560;2022-08-25T13:45:28;29.10;51.50
63317;DHT22;49822;41.468;13.560;2022-08-25T13:47:58;29.00;51.00
63317;DHT22;49822;41.468;13.560;2022-08-25T13:53:10;28.90;50.60
63317;DHT22;49822;41.468;13.560;2022-08-25T13:55:51;29.00;50.30
63317;DHT22;49822;41.468;13.560;2022-08-25T13:58:28;29.10;51.50
63317;DHT22;49822;41.468;13.560;2022-08-25T14:04:21;29.20;49.40
63317;DHT22;49822;41.468;13.560;2022-08-25T14:07:04;29.00;50.50
63317;DHT22;49822;41.468;13.560;2022-08-25T14:09:45;29.30;50.00
63317;DHT22;49822;41.468;13.560;2022-08-25T14:12:42;29.00;50.20
63317;DHT22;49822;41.468;13.560;2022-08-25T14:18:27;28.90;49.50
63317;DHT22;49822;41.468;13.560;2022-08-25T14:20:57;29.00;49.80
63317;DHT22;49822;41.468;13.560;2022-08-25T14:23:28;29.10;49.10
63317;DHT22;49822;41.468;13.560;2022-08-25T14:25:57;29.00;49.70
63317;DHT22;49822;41.468;13.560;2022-08-25T14:28:27;29.00;50.60
63317;DHT22;49822;41.468;13.560;2022-08-25T14:30:59;29.10;48.40
63317;DHT22;49822;41.468;13.560;2022-08-25T14:33:30;28.90;49.00
63317;DHT22;49822;41.468;13.560;2022-08-25T14:36:00;28.90;49.80
63317;DHT22;49822;41.468;13.560;2022-08-25T14:38:32;28.90;49.70
63317;DHT22;49822;41.468;13.560;2022-08-25T14:41:00;28.90;49.70
63317;DHT22;49822;41.468;13.560;2022-08-25T14:43:46;28.90;48.70
63317;DHT22;49822;41.468;13.560;2022-08-25T14:46:37;28.90;49.40
63317;DHT22;49822;41.468;13.560;2022-08-25T14:49:11;29.10;48.70
63317;DHT22;49822;41.468;13.560;2022-08-25T14:51:39;29.20;49.20
63317;DHT22;49822;41.468;13.560;2022-08-25T14:54:12;29.00;48.90
63317;DHT22;49822;41.468;13.560;2022-08-25T14:56:41;29.10;48.90
63317;DHT22;49822;41.468;13.560;2022-08-25T14:59:09;28.90;48.00
63317;DHT22;49822;41.468;13.560;2022-08-25T15:01:36;28.70;48.40
63317;DHT22;49822;41.468;13.560;2022-08-25T15:04:07;28.60;47.90
63317;DHT22;49822;41.468;13.560;2022-08-25T15:06:39;28.60;47.20
63317;DHT22;49822;41.468;13.560;2022-08-25T15:09:11;28.60;47.30
63317;DHT22;49822;41.468;13.560;2022-08-25T15:11:46;28.80;47.60
63317;DHT22;49822;41.468;13.560;2022-08-25T15:14:18;28.70;46.90
63317;DHT22;49822;41.468;13.560;2022-08-25T15:16:59;28.50;46.50
63317;DHT22;49822;41.468;13.560;2022-08-25T15:19:28;28.40;47.00
63317;DHT22;49822;41.468;13.560;2022-08-25T15:21:55;28.50;46.60
63317;DHT22;49822;41.468;13.560;2022-08-25T15:24:27;28.50;45.80
63317;DHT22;49822;41.468;13.560;2022-08-25T15:27:00;28.50;46.00
63317;DHT22;49822;41.468;13.560;2022-08-25T15:29:31;28.50;45.80
63317;DHT22;49822;41.468;13.560;2022-08-25T15:32:03;28.50;46.30
63317;DHT22;49822;41.468;13.560;2022-08-25T15:34:31;28.50;45.30
63317;DHT22;49822;41.468;13.560;2022-08-25T15:37:06;28.50;45.50
63317;DHT22;49822;41.468;13.560;2022-08-25T15:39:36;28.50;45.60
63317;DHT22;49822;41.468;13.560;2022-08-25T15:42:04;28.40;46.20
63317;DHT22;49822;41.468;13.560;2022-08-25T15:44:32;28.30;46.10
63317;DHT22;49822;41.468;13.560;2022-08-25T15:47:02;28.10;46.50
63317;DHT22;49822;41.468;13.560;2022-08-25T15:49:30;28.00;46.90
63317;DHT22;49822;41.468;13.560;2022-08-25T15:51:58;27.80;46.90
63317;DHT22;49822;41.468;13.560;2022-08-25T15:54:27;27.80;47.20
63317;DHT22;49822;41.468;13.560;2022-08-25T15:56:58;27.80;47.30
63317;DHT22;49822;41.468;13.560;2022-08-25T15:59:26;27.70;48.10
63317;DHT22;49822;41.468;13.560;2022-08-25T16:01:55;27.70;47.20
63317;DHT22;49822;41.468;13.560;2022-08-25T16:04:25;27.60;47.30
63317;DHT22;49822;41.468;13.560;2022-08-25T16:06:55;27.50;47.10
63317;DHT22;49822;41.468;13.560;2022-08-25T16:09:25;27.50;47.50
63317;DHT22;49822;41.468;13.560;2022-08-25T16:11:53;27.50;47.10
63317;DHT22;49822;41.468;13.560;2022-08-25T16:14:25;27.50;47.50
63317;DHT22;49822;41.468;13.560;2022-08-25T16:16:54;27.50;47.50
63317;DHT22;49822;41.468;13.560;2022-08-25T16:19:28;27.50;47.50
63317;DHT22;49822;41.468;13.560;2022-08-25T16:21:57;27.40;47.70
63317;DHT22;49822;41.468;13.560;2022-08-25T16:24:25;27.50;47.90
63317;DHT22;49822;41.468;13.560;2022-08-25T16:26:53;27.50;47.90
63317;DHT22;49822;41.468;13.560;2022-08-25T16:29:42;27.50;47.20
63317;DHT22;49822;41.468;13.560;2022-08-25T16:32:12;27.50;47.50
63317;DHT22;49822;41.468;13.560;2022-08-25T16:34:40;27.50;47.70
63317;DHT22;49822;41.468;13.560;2022-08-25T16:37:08;27.40;47.70
63317;DHT22;49822;41.468;13.560;2022-08-25T16:39:36;27.40;47.60
63317;DHT22;49822;41.468;13.560;2022-08-25T16:42:07;27.30;48.10
63317;DHT22;49822;41.468;13.560;2022-08-25T16:44:34;27.30;48.20
63317;DHT22;49822;41.468;13.560;2022-08-25T16:47:02;27.40;48.00
63317;DHT22;49822;41.468;13.560;2022-08-25T16:49:35;27.50;47.80
63317;DHT22;49822;41.468;13.560;2022-08-25T16:52:03;27.40;48.40
63317;DHT22;49822;41.468;13.560;2022-08-25T16:54:55;27.40;48.70
63317;DHT22;49822;41.468;13.560;2022-08-25T16:57:47;27.30;48.70
63317;DHT22;49822;41.468;13.560;2022-08-25T17:00:19;27.30;48.70
63317;DHT22;49822;41.468;13.560;2022-08-25T17:02:58;27.30;48.70
63317;DHT22;49822;41.468;13.560;2022-08-25T17:05:28;27.20;48.80
63317;DHT22;49822;41.468;13.560;2022-08-25T17:07:58;27.10;49.20
63317;DHT22;49822;41.468;13.560;2022-08-25T17:10:45;27.10;49.20
63317;DHT22;49822;41.468;13.560;2022-08-25T17:13:12;27.00;49.50
63317;DHT22;49822;41.468;13.560;2022-08-25T17:15:43;27.00;49.60
63317;DHT22;49822;41.468;13.560;2022-08-25T17:18:12;26.90;50.00
63317;DHT22;49822;41.468;13.560;2022-08-25T17:20:41;26.80;50.40
63317;DHT22;49822;41.468;13.560;2022-08-25T17:23:11;26.80;50.50
63317;DHT22;49822;41.468;13.560;2022-08-25T17:25:40;26.70;50.40
63317;DHT22;49822;41.468;13.560;2022-08-25T17:28:09;26.70;50.90
63317;DHT22;49822;41.468;13.560;2022-08-25T17:30:40;26.60;50.60
63317;DHT22;49822;41.468;13.560;2022-08-25T17:33:07;26.70;50.70
63317;DHT22;49822;41.468;13.560;2022-08-25T17:35:44;26.70;50.90
63317;DHT22;49822;41.468;13.560;2022-08-25T17:38:13;26.70;50.50
63317;DHT22;49822;41.468;13.560;2022-08-25T17:40:41;26.60;50.80
63317;DHT22;49822;41.468;13.560;2022-08-25T17:43:09;26.70;51.50
63317;DHT22;49822;41.468;13.560;2022-08-25T17:45:38;26.70;51.00
63317;DHT22;49822;41.468;13.560;2022-08-25T17:48:08;26.70;50.80
63317;DHT22;49822;41.468;13.560;2022-08-25T17:50:36;26.80;50.50
63317;DHT22;49822;41.468;13.560;2022-08-25T17:53:04;26.50;52.00
63317;DHT22;49822;41.468;13.560;2022-08-25T17:55:32;26.40;52.30
63317;DHT22;49822;41.468;13.560;2022-08-25T17:58:00;26.30;52.30
63317;DHT22;49822;41.468;13.560;2022-08-25T18:00:30;26.30;51.50
63317;DHT22;49822;41.468;13.560;2022-08-25T18:03:00;26.40;52.20
63317;DHT22;49822;41.468;13.560;2022-08-25T18:05:31;26.20;51.90
63317;DHT22;49822;41.468;13.560;2022-08-25T18:07:59;26.20;51.90
63317;DHT22;49822;41.468;13.560;2022-08-25T18:10:31;26.10;51.90
63317;DHT22;49822;41.468;13.560;2022-08-25T18:12:59;26.20;52.50